Latest Weather Observations for Archerfield

IDQ60801

Issued at 8:42 am EST Wednesday 12 August 2020 (issued every 10 minutes, with the page automatically refreshed every 10 minutes)

About weather observations | Map of weather stations | Latest weather observations for QLD | Other Formats
Station Details ID: 040211 Name: ARCHERFIELD AIRPORT Lat: -27.57 Lon: 153.01 Height: 12.5 m
Data from the previous 72 hours. | See also: Recent months at Archerfield
Date/Time
EST
Temp
°C
App
Temp
°C
Dew
Point
°C
Rel
Hum
%
Delta-T
°C
Wind Press
QNH
hPa
Press
MSL
hPa
Rain since
9am
mm
Dir  Spd
km/h
Gust
km/h
Spd
kts
Gust
kts
12/08:30am 14.5 14.5 11.3 81 1.7 S 2 6 1 3 1020.9 1020.9 0.0
12/08:00am 13.1 13.4 10.8 86 1.2 CALM 0 4 0 2 1020.9 1020.9 0.0
12/07:30am 12.4 11.3 10.8 90 0.8 S 7 9 4 5 1020.6 1020.6 0.0
12/07:00am 10.3 10.2 9.4 94 0.4 CALM 0 0 0 0 1020.2 1020.2 0.0
12/06:30am 8.5 7.9 7.3 92 0.6 CALM 0 0 0 0 1019.9 1019.9 0.0
12/06:00am 9.4 7.6 8.0 91 0.7 SSW 7 9 4 5 1019.6 1019.6 0.0
12/05:30am 9.6 9.3 8.7 94 0.4 CALM 0 0 0 0 1019.2 1019.2 0.0
12/05:00am 9.4 9.0 8.3 93 0.5 CALM 0 0 0 0 1018.9 1018.9 0.0
12/04:30am 8.8 6.9 7.4 91 0.7 W 7 9 4 5 1018.8 1018.8 0.0
12/04:00am 10.5 9.0 9.1 91 0.7 SE 7 9 4 5 1018.4 1018.4 0.0
12/03:30am 9.7 9.4 8.5 92 0.6 CALM 0 0 0 0 1018.8 1018.8 0.0
12/03:00am 8.9 7.5 7.4 90 0.7 SSW 4 7 2 4 1019.2 1019.2 0.0
12/02:30am 10.8 10.6 9.2 90 0.8 CALM 0 6 0 3 1018.9 1018.9 0.0
12/02:00am 10.0 9.3 8.4 90 0.8 SSW 2 6 1 3 1018.9 1018.9 0.0
12/01:30am 9.9 8.9 7.5 85 1.1 SSW 2 7 1 4 1019.0 1019.0 0.0
12/01:00am 11.2 9.3 9.1 87 1.0 SSW 9 11 5 6 1019.1 1019.1 0.0
12/12:30am 11.2 9.9 9.1 87 1.0 SW 6 7 3 4 1019.1 1019.1 0.0
12/12:00am 11.9 11.5 8.4 79 1.7 CALM 0 0 0 0 1018.8 1018.8 0.0
 
Date/Time
EST
Temp
°C
App
Temp
°C
Dew
Point
°C
Rel
Hum
%
Delta-T
°C
Wind Press
QNH
hPa
Press
MSL
hPa
Rain since
9am
mm
Dir  Spd
km/h
Gust
km/h
Spd
kts
Gust
kts
11/11:30pm 12.9 12.9 9.9 82 1.5 CALM 0 0 0 0 1018.9 1018.9 0.0
11/11:00pm 13.1 13.0 9.4 78 1.9 CALM 0 0 0 0 1019.0 1019.0 0.0
11/10:30pm 13.8 13.7 9.3 74 2.3 CALM 0 0 0 0 1019.1 1019.1 0.0
11/10:00pm 15.2 13.9 10.0 71 2.7 ESE 7 11 4 6 1019.1 1019.1 0.0
11/09:30pm 15.2 13.7 10.4 73 2.5 E 9 15 5 8 1019.0 1019.0 0.0
11/09:00pm 15.6 14.2 11.0 74 2.4 E 9 15 5 8 1018.8 1018.8 0.0
11/08:30pm 15.4 15.8 11.4 77 2.1 CALM 0 9 0 5 1018.8 1018.8 0.0
11/08:00pm 15.2 15.6 11.2 77 2.1 CALM 0 6 0 3 1018.7 1018.7 0.0
11/07:30pm 15.9 14.7 11.5 75 2.4 ENE 9 11 5 6 1018.3 1018.3 0.0
11/07:00pm 16.1 14.8 11.3 73 2.6 ENE 9 13 5 7 1018.3 1018.3 0.0
11/06:30pm 16.8 14.8 11.5 71 2.9 ENE 13 17 7 9 1017.9 1017.9 0.0
11/06:00pm 17.4 15.2 10.8 65 3.5 ENE 13 17 7 9 1017.5 1017.5 0.0
11/05:30pm 17.2 15.2 10.3 64 3.7 NE 11 17 6 9 1017.1 1017.1 0.0
11/05:00pm 18.5 16.4 9.6 56 4.7 ENE 11 15 6 8 1016.7 1016.7 0.0
11/04:30pm 20.6 18.2 10.1 51 5.7 NE 13 19 7 10 1016.4 1016.4 0.0
11/04:00pm 20.8 17.9 9.7 49 5.9 NE 15 19 8 10 1016.2 1016.2 0.0
11/03:30pm 21.0 17.3 9.6 48 6.1 NNE 19 24 10 13 1016.1 1016.1 0.0
11/03:00pm 22.3 21.0 9.1 43 7.1 ENE 6 13 3 7 1015.9 1015.9 0.0
11/02:30pm 21.5 20.0 8.4 43 6.9 ENE 6 9 3 5 1016.1 1016.1 0.0
11/02:00pm 21.2 20.0 8.1 43 6.8 SSW 4 9 2 5 1016.3 1016.3 0.0
11/01:30pm 22.6 21.1 9.0 42 7.3 E 7 13 4 7 1016.5 1016.5 0.0
11/01:00pm 22.1 20.6 8.6 42 7.1 WSW 6 11 3 6 1016.6 1016.6 0.0
11/12:30pm 22.0 19.3 8.9 43 7.0 SSE 13 22 7 12 1017.0 1017.0 0.0
11/12:00pm 21.1 18.9 8.0 43 6.8 SSW 9 15 5 8 1017.7 1017.7 0.0
11/11:30am 20.6 18.9 8.3 45 6.4 SW 7 13 4 7 1017.9 1017.9 0.0
11/11:00am 20.3 18.9 9.5 50 5.7 SSW 7 15 4 8 1018.4 1018.4 0.0
11/10:30am 19.1 17.0 8.1 49 5.7 WSW 9 17 5 9 1018.7 1018.7 0.0
11/10:00am 18.0 15.1 8.0 52 5.1 SW 13 19 7 10 1018.8 1018.8 0.0
11/09:30am 17.3 14.3 7.9 54 4.8 SW 13 19 7 10 1018.9 1018.9 0.0
11/09:00am 16.4 13.1 7.9 57 4.3 WSW 15 20 8 11 1018.9 1018.9 0.0
11/08:30am 15.1 12.2 8.3 64 3.4 WSW 13 17 7 9 1018.7 1018.7 0.0
11/08:00am 13.7 11.6 8.1 69 2.8 WSW 9 11 5 6 1018.5 1018.5 0.0
11/07:30am 12.4 9.9 8.1 75 2.1 W 11 15 6 8 1018.2 1018.2 0.0
11/07:00am 11.0 8.4 7.7 80 1.6 WSW 11 17 6 9 1017.9 1017.9 0.0
11/06:30am 10.5 7.5 7.6 82 1.4 WSW 13 19 7 10 1017.4 1017.4 0.0
11/06:00am 10.6 7.6 7.5 81 1.5 WSW 13 17 7 9 1017.1 1017.1 0.0
11/05:30am 10.7 7.7 7.6 81 1.5 SW 13 17 7 9 1016.8 1016.8 0.0
11/05:00am 10.7 8.1 7.8 82 1.4 WSW 11 15 6 8 1016.6 1016.6 0.0
11/04:30am 11.0 7.6 7.7 80 1.6 W 15 20 8 11 1016.1 1016.1 0.0
11/04:00am 11.2 7.8 7.7 79 1.7 WSW 15 20 8 11 1015.9 1015.9 0.0
11/03:30am 11.5 7.4 8.0 79 1.7 W 19 24 10 13 1015.8 1015.8 0.0
11/03:00am 11.5 7.4 7.8 78 1.8 W 19 22 10 12 1015.6 1015.6 0.0
11/02:30am 11.7 7.6 7.8 77 1.9 W 19 26 10 14 1015.4 1015.4 0.0
11/02:00am 11.8 7.7 7.9 77 1.9 W 19 26 10 14 1015.4 1015.4 0.0
11/01:30am 11.7 7.6 8.0 78 1.8 W 19 24 10 13 1015.6 1015.6 0.0
11/01:00am 11.5 7.7 7.6 77 1.9 W 17 24 9 13 1015.8 1015.8 0.0
11/12:30am 11.9 8.1 7.6 75 2.1 W 17 22 9 12 1015.6 1015.6 0.0
11/12:00am 11.8 7.9 7.3 74 2.2 W 17 20 9 11 1015.7 1015.7 0.0
 
Date/Time
EST
Temp
°C
App
Temp
°C
Dew
Point
°C
Rel
Hum
%
Delta-T
°C
Wind Press
QNH
hPa
Press
MSL
hPa
Rain since
9am
mm
Dir  Spd
km/h
Gust
km/h
Spd
kts
Gust
kts
10/11:30pm 11.9 8.0 7.0 72 2.3 W 17 24 9 13 1015.7 1015.7 0.0
10/11:00pm 12.3 8.0 6.8 69 2.6 W 19 24 10 13 1015.5 1015.5 0.0
10/10:30pm 12.3 7.9 6.6 68 2.7 W 19 24 10 13 1015.6 1015.6 0.0
10/10:00pm 12.7 8.1 6.3 65 3.0 W 20 26 11 14 1015.5 1015.5 0.0
10/09:30pm 13.1 8.0 6.2 63 3.3 W 22 30 12 16 1015.3 1015.3 0.0
10/09:00pm 13.6 8.2 6.5 62 3.4 W 24 32 13 17 1015.0 1015.0 0.0
10/08:30pm 13.6 8.5 6.2 61 3.5 W 22 28 12 15 1014.8 1014.8 0.0
10/08:00pm 13.5 8.8 5.9 60 3.6 W 20 28 11 15 1014.6 1014.6 0.0
10/07:30pm 13.6 8.4 5.5 58 3.8 W 22 30 12 16 1014.5 1014.5 0.0
10/07:00pm 13.8 8.2 5.4 57 3.9 W 24 32 13 17 1013.9 1013.9 0.0
10/06:30pm 13.7 8.1 5.3 57 3.9 W 24 32 13 17 1013.7 1013.7 0.0
10/06:00pm 13.9 8.2 5.0 55 4.1 W 24 33 13 18 1013.2 1013.2 0.0
10/05:30pm 14.1 8.0 4.9 54 4.3 W 26 37 14 20 1012.6 1012.5 0.0
10/05:00pm 14.8 7.4 4.8 51 4.7 WNW 33 44 18 24 1012.2 1012.1 0.0
10/04:30pm 15.9 8.6 4.6 47 5.3 W 32 41 17 22 1011.9 1011.8 0.0
10/04:00pm 16.5 9.2 4.5 45 5.7 W 32 46 17 25 1011.5 1011.4 0.0
10/03:30pm 17.2 9.3 4.5 43 6.0 W 35 48 19 26 1011.2 1011.1 0.0
10/03:00pm 17.1 9.7 4.1 42 6.1 W 32 43 17 23 1011.0 1010.9 0.0
10/02:42pm 17.2 9.7 3.5 40 6.3 W 32 50 17 27 1011.0 1010.9 0.0
10/02:30pm 17.4 9.8 4.0 41 6.3 W 33 46 18 25 1010.9 1010.8 0.0
10/02:00pm 17.4 9.8 4.0 41 6.3 WSW 33 48 18 26 1010.7 1010.6 0.0
10/01:30pm 17.1 9.2 4.1 42 6.1 WSW 35 50 19 27 1010.7 1010.6 0.0
10/01:19pm 17.1 9.2 4.1 42 6.1 SW 35 46 19 25 1010.8 1010.7 0.0
10/01:00pm 17.3 9.2 3.2 39 6.5 W 35 48 19 26 1010.8 1010.7 0.0
10/12:45pm 18.1 10.1 3.9 39 6.7 W 35 56 19 30 1010.6 1010.5 0.0
10/12:30pm 17.8 9.8 3.7 39 6.6 W 35 43 19 23 1010.8 1010.7 0.0
10/12:00pm 18.1 10.9 5.0 42 6.3 WSW 32 52 17 28 1011.2 1011.1 0.0
10/11:54am 16.1 8.4 3.5 43 5.8 W 33 52 18 28 1011.1 1011.0 0.0
10/11:30am 16.4 8.0 3.5 42 5.9 W 37 50 20 27 1011.5 1011.4 0.0
10/11:00am 16.7 9.6 3.7 42 6.0 W 30 44 16 24 1011.7 1011.6 0.0
10/10:30am 16.8 8.7 3.5 41 6.1 W 35 54 19 29 1011.9 1011.8 0.0
10/10:00am 15.6 8.1 4.3 47 5.3 W 33 46 18 25 1012.0 1011.9 0.0
10/09:31am 15.6 9.0 4.0 46 5.4 W 28 46 15 25 1012.3 1012.2 0.0
10/09:30am 15.8 9.6 4.5 47 5.3 W 26 46 14 25 1012.4 1012.3 0.0
10/09:13am 15.3 8.4 4.4 48 5.1 W 30 48 16 26 1012.2 1012.1 0.0
10/09:00am 15.5 9.7 6.2 54 4.5 W 26 35 14 19 1012.0 1011.9 0.0
10/08:30am 14.4 8.9 5.7 56 4.1 WNW 24 35 13 19 1012.0 1011.9 0.0
10/08:00am 13.4 7.5 6.0 61 3.5 WNW 26 35 14 19 1012.1 1012.0 0.0
10/07:30am 12.9 9.2 6.5 65 3.1 WNW 15 20 8 11 1012.1 1012.0 0.0
10/07:00am 11.0 6.9 6.0 71 2.3 WNW 17 24 9 13 1012.0 1011.9 0.0
10/06:30am 10.6 6.8 6.0 73 2.1 WNW 15 22 8 12 1012.0 1011.9 0.0
10/06:00am 9.8 7.0 5.0 72 2.2 WNW 9 13 5 7 1011.8 1011.7 0.0
10/05:30am 10.5 7.0 5.5 71 2.3 WNW 13 19 7 10 1011.5 1011.4 0.0
10/05:00am 10.4 5.8 5.4 71 2.3 WNW 19 26 10 14 1011.2 1011.1 0.0
10/04:30am 10.8 7.2 4.9 67 2.7 WNW 13 19 7 10 1011.1 1011.0 0.0
10/04:00am 11.6 6.6 4.8 63 3.1 WNW 20 30 11 16 1010.9 1010.8 0.0
10/03:30am 11.9 8.7 5.1 63 3.1 NNW 11 17 6 9 1011.3 1011.2 0.0
10/03:00am 11.5 8.2 4.5 62 3.2 W 11 15 6 8 1011.6 1011.5 0.0
10/02:30am 11.8 7.0 4.5 61 3.3 W 19 28 10 15 1011.6 1011.5 0.0
10/02:00am 11.7 7.2 4.2 60 3.4 WNW 17 26 9 14 1011.6 1011.5 0.0
10/01:30am 11.2 7.0 4.0 61 3.2 W 15 19 8 10 1011.9 1011.8 0.0
10/01:00am 10.9 7.7 3.2 59 3.4 NW 9 11 5 6 1012.2 1012.1 0.0
10/12:30am 10.3 7.4 2.7 59 3.3 N 7 11 4 6 1012.5 1012.4 0.0
10/12:00am 11.0 8.2 3.3 59 3.4 NNE 7 9 4 5 1012.8 1012.7 0.0
 
Date/Time
EST
Temp
°C
App
Temp
°C
Dew
Point
°C
Rel
Hum
%
Delta-T
°C
Wind Press
QNH
hPa
Press
MSL
hPa
Rain since
9am
mm
Dir  Spd
km/h
Gust
km/h
Spd
kts
Gust
kts
09/11:30pm 10.6 7.8 3.4 61 3.1 NE 7 13 4 7 1012.9 1012.9 0.0
09/11:00pm 10.4 7.8 3.2 61 3.1 NNW 6 9 3 5 1013.2 1013.2 0.0
09/10:30pm 10.8 9.3 2.9 58 3.4 CALM 0 6 0 3 1013.4 1013.4 0.0
09/10:00pm 10.8 8.1 2.6 57 3.5 NNE 6 9 3 5 1013.6 1013.6 0.0
09/09:30pm 11.8 8.6 2.8 54 3.9 WNW 9 13 5 7 1013.4 1013.4 0.0
09/09:00pm 13.2 8.9 3.3 51 4.4 WNW 15 22 8 12 1013.2 1013.2 0.0
09/08:30pm 13.0 8.6 2.8 50 4.5 WNW 15 19 8 10 1013.1 1013.1 0.0
09/08:00pm 13.9 8.5 2.5 46 5.0 W 20 30 11 16 1013.0 1013.0 0.0
09/07:30pm 14.4 8.6 2.3 44 5.3 WNW 22 30 12 16 1012.9 1012.9 0.0
09/07:00pm 14.1 9.3 2.4 45 5.2 W 17 24 9 13 1012.7 1012.6 0.0
09/06:30pm 14.8 9.5 2.0 42 5.6 WNW 19 26 10 14 1012.4 1012.3 0.0
09/06:00pm 14.2 10.1 2.1 44 5.3 W 13 19 7 10 1012.3 1012.2 0.0
09/05:30pm 15.3 9.8 1.8 40 5.9 W 20 26 11 14 1011.9 1011.8 0.0
09/05:00pm 16.5 10.6 1.8 37 6.5 W 22 32 12 17 1011.7 1011.6 0.0
09/04:30pm 17.5 10.5 1.9 35 7.0 W 28 39 15 21 1011.5 1011.4 0.0
09/04:00pm 18.0 10.2 1.9 34 7.3 W 32 46 17 25 1011.2 1011.1 0.0
09/03:30pm 18.6 11.5 1.6 32 7.7 WSW 28 39 15 21 1011.1 1011.0 0.0
09/03:00pm 18.7 10.3 1.7 32 7.7 W 35 48 19 26 1011.1 1011.0 0.0
09/02:30pm 18.5 9.7 1.5 32 7.6 W 37 52 20 28 1011.2 1011.1 0.0
09/02:00pm 18.9 11.2 2.3 33 7.6 W 32 46 17 25 1011.5 1011.4 0.0
09/01:52pm 18.8 11.5 2.2 33 7.6 W 30 48 16 26 1011.5 1011.4 0.0
09/01:30pm 18.8 10.8 1.8 32 7.7 W 33 44 18 24 1011.8 1011.7 0.0
09/01:00pm 18.6 10.9 2.4 34 7.4 W 32 39 17 21 1012.1 1012.0 0.0
09/12:30pm 18.2 12.2 3.3 37 6.9 W 24 39 13 21 1012.4 1012.3 0.0
09/12:00pm 17.6 10.4 2.8 37 6.8 W 30 37 16 20 1013.0 1013.0 0.0
09/11:58am 17.8 10.7 3.3 38 6.7 W 30 48 16 26 1013.0 1013.0 0.0
09/11:30am 17.4 10.9 2.6 37 6.7 W 26 41 14 22 1013.4 1013.4 0.0
09/11:00am 18.1 11.6 2.8 36 7.0 W 26 37 14 20 1013.9 1013.9 0.0
09/10:30am 16.7 10.1 4.1 43 5.9 W 28 37 15 20 1014.6 1014.6 0.0
09/10:00am 17.1 11.6 6.0 48 5.4 W 24 33 13 18 1014.9 1014.9 0.0
09/09:30am 15.2 10.0 5.4 52 4.7 W 22 32 12 17 1015.1 1015.1 0.0
09/09:00am 15.0 11.0 6.6 57 4.1 WSW 17 26 9 14 1015.0 1015.0 0.0

Other formats

Comma delimited format used in spreadsheet applications
http://www.bom.gov.au/fwo/IDQ60801/IDQ60801.94575.axf

JavaScript Object Notation format (JSON) in row-major order
http://www.bom.gov.au/fwo/IDQ60801/IDQ60801.94575.json

Data quality

Most of these data are generated automatically and are frequently updated. Quality checks on data are not normally performed. It is possible for incorrect values to appear. Refer to information at About Latest Weather Observations and please check the disclaimer before using these data.